Cheyenne Mountain AFB, Colorado
Current Conditions -  °F | °C
As of 8:54 PM on Friday 19 Dec 2014 (Local Time) from KCOS Reporting Station
Broken Clouds Broken Clouds  
Wind Chill: 26°   Ceiling: 25000
Heat Index: 26°   Visibility: 10mi
Dew Point: 15°   Wind: 3mph
Humidity: 63%   Direction: 60°ENE
Pressure: 30.06"   Gusts: NA
Location:  38.8076°N, 104.704°W
Report Text: KCOS 200354Z 06003KT 10SM BKN250 M03/M09 A3006 RMK AO2 SLP213 T10331094
Loading
Personal Weather Stations






























Interactive Weather Map New forecast layout! Learn more

10-Day Weather Forecast

Advertisements
Track Severe Weather on mobile